sensor_id;sensor_type;location;lat;lon;timestamp;P1;durP1;ratioP1;P2;durP2;ratioP2
22794;SDS011;11564;50.920;11.612;2023-04-15T00:00:54;8.57;;;7.77;;
22794;SDS011;11564;50.920;11.612;2023-04-15T00:03:20;8.70;;;7.90;;
22794;SDS011;11564;50.920;11.612;2023-04-15T00:05:45;9.67;;;8.60;;
22794;SDS011;11564;50.920;11.612;2023-04-15T00:08:11;9.57;;;8.33;;
22794;SDS011;11564;50.920;11.612;2023-04-15T00:10:37;8.13;;;7.43;;
22794;SDS011;11564;50.920;11.612;2023-04-15T00:13:03;9.93;;;8.23;;
22794;SDS011;11564;50.920;11.612;2023-04-15T00:15:28;9.90;;;8.90;;
22794;SDS011;11564;50.920;11.612;2023-04-15T00:17:54;11.23;;;9.20;;
22794;SDS011;11564;50.920;11.612;2023-04-15T00:20:20;8.73;;;7.93;;
22794;SDS011;11564;50.920;11.612;2023-04-15T00:22:46;10.47;;;9.00;;
22794;SDS011;11564;50.920;11.612;2023-04-15T00:25:12;11.03;;;10.03;;
22794;SDS011;11564;50.920;11.612;2023-04-15T00:27:39;10.03;;;9.00;;
22794;SDS011;11564;50.920;11.612;2023-04-15T00:30:05;9.90;;;9.00;;
22794;SDS011;11564;50.920;11.612;2023-04-15T00:32:31;11.07;;;9.47;;
22794;SDS011;11564;50.920;11.612;2023-04-15T00:34:56;10.13;;;9.10;;
22794;SDS011;11564;50.920;11.612;2023-04-15T00:37:22;9.73;;;8.83;;
22794;SDS011;11564;50.920;11.612;2023-04-15T00:39:48;12.30;;;8.80;;
22794;SDS011;11564;50.920;11.612;2023-04-15T00:42:13;10.70;;;9.67;;
22794;SDS011;11564;50.920;11.612;2023-04-15T00:44:39;10.23;;;9.23;;
22794;SDS011;11564;50.920;11.612;2023-04-15T00:47:05;10.33;;;9.37;;
22794;SDS011;11564;50.920;11.612;2023-04-15T00:49:31;9.80;;;8.90;;
22794;SDS011;11564;50.920;11.612;2023-04-15T00:51:57;9.73;;;8.83;;
22794;SDS011;11564;50.920;11.612;2023-04-15T00:54:22;9.63;;;8.73;;
22794;SDS011;11564;50.920;11.612;2023-04-15T00:56:48;9.53;;;8.63;;
22794;SDS011;11564;50.920;11.612;2023-04-15T00:59:13;9.70;;;8.73;;
22794;SDS011;11564;50.920;11.612;2023-04-15T01:01:40;9.50;;;8.50;;
22794;SDS011;11564;50.920;11.612;2023-04-15T01:04:08;9.43;;;8.57;;
22794;SDS011;11564;50.920;11.612;2023-04-15T01:06:36;8.03;;;7.43;;
22794;SDS011;11564;50.920;11.612;2023-04-15T01:09:01;9.80;;;8.90;;
22794;SDS011;11564;50.920;11.612;2023-04-15T01:11:27;9.60;;;8.70;;
22794;SDS011;11564;50.920;11.612;2023-04-15T01:13:54;7.97;;;7.27;;
22794;SDS011;11564;50.920;11.612;2023-04-15T01:16:22;9.07;;;7.90;;
22794;SDS011;11564;50.920;11.612;2023-04-15T01:18:48;9.07;;;7.97;;
22794;SDS011;11564;50.920;11.612;2023-04-15T01:21:14;9.60;;;8.60;;
22794;SDS011;11564;50.920;11.612;2023-04-15T01:23:39;10.47;;;8.20;;
22794;SDS011;11564;50.920;11.612;2023-04-15T01:26:06;8.70;;;7.90;;
22794;SDS011;11564;50.920;11.612;2023-04-15T01:28:33;9.90;;;9.00;;
22794;SDS011;11564;50.920;11.612;2023-04-15T01:31:06;8.87;;;7.97;;
22794;SDS011;11564;50.920;11.612;2023-04-15T01:33:32;7.43;;;6.83;;
22794;SDS011;11564;50.920;11.612;2023-04-15T01:35:58;9.20;;;8.30;;
22794;SDS011;11564;50.920;11.612;2023-04-15T01:38:25;8.97;;;8.03;;
22794;SDS011;11564;50.920;11.612;2023-04-15T01:40:51;8.80;;;8.00;;
22794;SDS011;11564;50.920;11.612;2023-04-15T01:43:17;8.00;;;7.30;;
22794;SDS011;11564;50.920;11.612;2023-04-15T01:45:43;8.70;;;7.43;;
22794;SDS011;11564;50.920;11.612;2023-04-15T01:48:09;9.47;;;8.67;;
22794;SDS011;11564;50.920;11.612;2023-04-15T01:50:36;7.80;;;7.10;;
22794;SDS011;11564;50.920;11.612;2023-04-15T01:53:02;9.37;;;8.40;;
22794;SDS011;11564;50.920;11.612;2023-04-15T01:55:28;8.20;;;7.50;;
22794;SDS011;11564;50.920;11.612;2023-04-15T01:57:54;8.77;;;7.87;;
22794;SDS011;11564;50.920;11.612;2023-04-15T02:00:20;8.77;;;7.90;;
22794;SDS011;11564;50.920;11.612;2023-04-15T02:02:47;7.70;;;7.00;;
22794;SDS011;11564;50.920;11.612;2023-04-15T02:05:12;7.40;;;6.70;;
22794;SDS011;11564;50.920;11.612;2023-04-15T02:07:38;8.90;;;8.10;;
22794;SDS011;11564;50.920;11.612;2023-04-15T02:10:04;8.53;;;7.60;;
22794;SDS011;11564;50.920;11.612;2023-04-15T02:12:30;8.60;;;7.80;;
22794;SDS011;11564;50.920;11.612;2023-04-15T02:14:55;7.80;;;7.07;;
22794;SDS011;11564;50.920;11.612;2023-04-15T02:17:21;8.07;;;7.20;;
22794;SDS011;11564;50.920;11.612;2023-04-15T02:19:47;8.03;;;7.23;;
22794;SDS011;11564;50.920;11.612;2023-04-15T02:22:13;9.60;;;7.70;;
22794;SDS011;11564;50.920;11.612;2023-04-15T02:24:42;11.00;;;7.90;;
22794;SDS011;11564;50.920;11.612;2023-04-15T02:27:08;8.10;;;7.30;;
22794;SDS011;11564;50.920;11.612;2023-04-15T02:29:34;8.00;;;7.20;;
22794;SDS011;11564;50.920;11.612;2023-04-15T02:31:59;7.63;;;6.93;;
22794;SDS011;11564;50.920;11.612;2023-04-15T02:34:25;8.40;;;7.50;;
22794;SDS011;11564;50.920;11.612;2023-04-15T02:36:51;8.57;;;7.60;;
22794;SDS011;11564;50.920;11.612;2023-04-15T02:39:21;10.57;;;8.13;;
22794;SDS011;11564;50.920;11.612;2023-04-15T02:41:47;7.53;;;6.83;;
22794;SDS011;11564;50.920;11.612;2023-04-15T02:44:16;8.13;;;7.30;;
22794;SDS011;11564;50.920;11.612;2023-04-15T02:46:46;8.00;;;7.30;;
22794;SDS011;11564;50.920;11.612;2023-04-15T02:49:16;9.10;;;7.30;;
22794;SDS011;11564;50.920;11.612;2023-04-15T02:51:42;9.40;;;7.53;;
22794;SDS011;11564;50.920;11.612;2023-04-15T02:54:11;7.70;;;7.00;;
22794;SDS011;11564;50.920;11.612;2023-04-15T02:56:37;7.80;;;7.20;;
22794;SDS011;11564;50.920;11.612;2023-04-15T02:59:02;7.07;;;6.47;;
22794;SDS011;11564;50.920;11.612;2023-04-15T03:01:28;8.60;;;7.53;;
22794;SDS011;11564;50.920;11.612;2023-04-15T03:03:54;8.13;;;7.30;;
22794;SDS011;11564;50.920;11.612;2023-04-15T03:06:20;8.00;;;7.30;;
22794;SDS011;11564;50.920;11.612;2023-04-15T03:08:45;8.93;;;7.80;;
22794;SDS011;11564;50.920;11.612;2023-04-15T03:11:11;9.53;;;6.97;;
22794;SDS011;11564;50.920;11.612;2023-04-15T03:13:38;8.23;;;7.43;;
22794;SDS011;11564;50.920;11.612;2023-04-15T03:16:05;9.10;;;8.20;;
22794;SDS011;11564;50.920;11.612;2023-04-15T03:18:31;9.33;;;8.20;;
22794;SDS011;11564;50.920;11.612;2023-04-15T03:20:57;10.63;;;7.80;;
22794;SDS011;11564;50.920;11.612;2023-04-15T03:23:22;6.97;;;6.37;;
22794;SDS011;11564;50.920;11.612;2023-04-15T03:25:48;8.77;;;7.87;;
22794;SDS011;11564;50.920;11.612;2023-04-15T03:28:14;9.53;;;7.30;;
22794;SDS011;11564;50.920;11.612;2023-04-15T03:30:40;8.63;;;7.07;;
22794;SDS011;11564;50.920;11.612;2023-04-15T03:33:06;7.03;;;6.43;;
22794;SDS011;11564;50.920;11.612;2023-04-15T03:35:32;6.87;;;6.17;;
22794;SDS011;11564;50.920;11.612;2023-04-15T03:37:59;7.40;;;6.60;;
22794;SDS011;11564;50.920;11.612;2023-04-15T03:40:25;7.00;;;6.40;;
22794;SDS011;11564;50.920;11.612;2023-04-15T03:42:51;7.60;;;6.90;;
22794;SDS011;11564;50.920;11.612;2023-04-15T03:45:16;7.50;;;6.73;;
22794;SDS011;11564;50.920;11.612;2023-04-15T03:47:42;7.17;;;6.50;;
22794;SDS011;11564;50.920;11.612;2023-04-15T03:50:07;7.60;;;6.90;;
22794;SDS011;11564;50.920;11.612;2023-04-15T03:52:33;8.60;;;7.80;;
22794;SDS011;11564;50.920;11.612;2023-04-15T03:54:59;6.90;;;6.20;;
22794;SDS011;11564;50.920;11.612;2023-04-15T03:57:25;6.83;;;6.27;;
22794;SDS011;11564;50.920;11.612;2023-04-15T03:59:51;7.50;;;6.80;;
22794;SDS011;11564;50.920;11.612;2023-04-15T04:02:16;7.97;;;7.27;;
22794;SDS011;11564;50.920;11.612;2023-04-15T04:04:42;9.00;;;7.70;;
22794;SDS011;11564;50.920;11.612;2023-04-15T04:07:08;10.63;;;7.67;;
22794;SDS011;11564;50.920;11.612;2023-04-15T04:09:42;7.77;;;6.90;;
22794;SDS011;11564;50.920;11.612;2023-04-15T04:12:07;7.83;;;7.03;;
22794;SDS011;11564;50.920;11.612;2023-04-15T04:14:33;8.20;;;6.83;;
22794;SDS011;11564;50.920;11.612;2023-04-15T04:16:59;9.70;;;7.70;;
22794;SDS011;11564;50.920;11.612;2023-04-15T04:19:24;9.30;;;8.40;;
22794;SDS011;11564;50.920;11.612;2023-04-15T04:21:50;9.30;;;8.40;;
22794;SDS011;11564;50.920;11.612;2023-04-15T04:24:16;9.57;;;8.20;;
22794;SDS011;11564;50.920;11.612;2023-04-15T04:26:42;10.10;;;8.23;;
22794;SDS011;11564;50.920;11.612;2023-04-15T04:29:07;8.60;;;7.80;;
22794;SDS011;11564;50.920;11.612;2023-04-15T04:31:33;8.27;;;7.47;;
22794;SDS011;11564;50.920;11.612;2023-04-15T04:33:59;9.07;;;8.17;;
22794;SDS011;11564;50.920;11.612;2023-04-15T04:36:24;9.30;;;8.37;;
22794;SDS011;11564;50.920;11.612;2023-04-15T04:38:50;8.33;;;7.53;;
22794;SDS011;11564;50.920;11.612;2023-04-15T04:41:16;9.23;;;7.50;;
22794;SDS011;11564;50.920;11.612;2023-04-15T04:43:42;9.80;;;8.80;;
22794;SDS011;11564;50.920;11.612;2023-04-15T04:46:08;10.63;;;8.23;;
22794;SDS011;11564;50.920;11.612;2023-04-15T04:48:34;8.40;;;7.60;;
22794;SDS011;11564;50.920;11.612;2023-04-15T04:50:59;9.33;;;8.37;;
22794;SDS011;11564;50.920;11.612;2023-04-15T04:53:26;8.87;;;8.00;;
22794;SDS011;11564;50.920;11.612;2023-04-15T04:55:52;8.90;;;8.00;;
22794;SDS011;11564;50.920;11.612;2023-04-15T04:58:17;8.67;;;7.87;;
22794;SDS011;11564;50.920;11.612;2023-04-15T05:00:43;7.90;;;7.20;;
22794;SDS011;11564;50.920;11.612;2023-04-15T05:03:09;8.40;;;7.33;;
22794;SDS011;11564;50.920;11.612;2023-04-15T05:05:34;8.73;;;7.93;;
22794;SDS011;11564;50.920;11.612;2023-04-15T05:08:03;9.53;;;8.53;;
22794;SDS011;11564;50.920;11.612;2023-04-15T05:10:29;9.87;;;8.97;;
22794;SDS011;11564;50.920;11.612;2023-04-15T05:12:55;9.50;;;8.50;;
22794;SDS011;11564;50.920;11.612;2023-04-15T05:15:21;10.20;;;9.20;;
22794;SDS011;11564;50.920;11.612;2023-04-15T05:17:47;11.27;;;9.57;;
22794;SDS011;11564;50.920;11.612;2023-04-15T05:20:12;10.20;;;9.27;;
22794;SDS011;11564;50.920;11.612;2023-04-15T05:22:38;11.70;;;10.60;;
22794;SDS011;11564;50.920;11.612;2023-04-15T05:25:04;14.17;;;11.63;;
22794;SDS011;11564;50.920;11.612;2023-04-15T05:27:30;20.17;;;13.53;;
22794;SDS011;11564;50.920;11.612;2023-04-15T05:29:55;14.73;;;12.50;;
22794;SDS011;11564;50.920;11.612;2023-04-15T05:32:21;17.57;;;13.53;;
22794;SDS011;11564;50.920;11.612;2023-04-15T05:34:47;15.67;;;13.73;;
22794;SDS011;11564;50.920;11.612;2023-04-15T05:37:12;14.57;;;13.00;;
22794;SDS011;11564;50.920;11.612;2023-04-15T05:39:38;15.87;;;13.77;;
22794;SDS011;11564;50.920;11.612;2023-04-15T05:42:03;18.83;;;14.23;;
22794;SDS011;11564;50.920;11.612;2023-04-15T05:44:30;18.20;;;13.50;;
22794;SDS011;11564;50.920;11.612;2023-04-15T05:46:55;15.23;;;12.37;;
22794;SDS011;11564;50.920;11.612;2023-04-15T05:49:21;13.37;;;11.87;;
22794;SDS011;11564;50.920;11.612;2023-04-15T05:51:47;14.20;;;12.27;;
22794;SDS011;11564;50.920;11.612;2023-04-15T05:54:13;13.83;;;11.57;;
22794;SDS011;11564;50.920;11.612;2023-04-15T05:56:39;13.57;;;12.03;;
22794;SDS011;11564;50.920;11.612;2023-04-15T05:59:05;13.57;;;11.63;;
22794;SDS011;11564;50.920;11.612;2023-04-15T06:01:30;14.13;;;11.03;;
22794;SDS011;11564;50.920;11.612;2023-04-15T06:03:57;15.20;;;11.53;;
22794;SDS011;11564;50.920;11.612;2023-04-15T06:06:23;18.33;;;13.13;;
22794;SDS011;11564;50.920;11.612;2023-04-15T06:08:49;16.10;;;12.57;;
22794;SDS011;11564;50.920;11.612;2023-04-15T06:11:14;16.50;;;12.70;;
22794;SDS011;11564;50.920;11.612;2023-04-15T06:13:40;18.77;;;13.70;;
22794;SDS011;11564;50.920;11.612;2023-04-15T06:16:06;18.13;;;12.60;;
22794;SDS011;11564;50.920;11.612;2023-04-15T06:18:32;19.00;;;13.83;;
22794;SDS011;11564;50.920;11.612;2023-04-15T06:20:57;17.60;;;13.70;;
22794;SDS011;11564;50.920;11.612;2023-04-15T06:23:23;20.10;;;14.00;;
22794;SDS011;11564;50.920;11.612;2023-04-15T06:25:49;17.83;;;14.47;;
22794;SDS011;11564;50.920;11.612;2023-04-15T06:28:15;21.63;;;15.97;;
22794;SDS011;11564;50.920;11.612;2023-04-15T06:30:41;20.43;;;15.20;;
22794;SDS011;11564;50.920;11.612;2023-04-15T06:33:06;22.20;;;16.60;;
22794;SDS011;11564;50.920;11.612;2023-04-15T06:35:32;25.50;;;17.87;;
22794;SDS011;11564;50.920;11.612;2023-04-15T06:37:58;23.60;;;17.47;;
22794;SDS011;11564;50.920;11.612;2023-04-15T06:40:23;27.43;;;18.37;;
22794;SDS011;11564;50.920;11.612;2023-04-15T06:42:49;21.50;;;16.70;;
22794;SDS011;11564;50.920;11.612;2023-04-15T06:45:14;23.97;;;16.70;;
22794;SDS011;11564;50.920;11.612;2023-04-15T06:47:41;29.60;;;20.00;;
22794;SDS011;11564;50.920;11.612;2023-04-15T06:50:07;29.40;;;18.03;;
22794;SDS011;11564;50.920;11.612;2023-04-15T06:52:34;27.83;;;19.03;;
22794;SDS011;11564;50.920;11.612;2023-04-15T06:55:00;26.90;;;18.70;;
22794;SDS011;11564;50.920;11.612;2023-04-15T06:57:26;27.47;;;18.80;;
22794;SDS011;11564;50.920;11.612;2023-04-15T06:59:52;25.67;;;18.03;;
22794;SDS011;11564;50.920;11.612;2023-04-15T07:02:18;27.00;;;18.17;;
22794;SDS011;11564;50.920;11.612;2023-04-15T07:04:44;23.40;;;17.30;;
22794;SDS011;11564;50.920;11.612;2023-04-15T07:07:10;20.57;;;15.83;;
22794;SDS011;11564;50.920;11.612;2023-04-15T07:09:36;20.60;;;16.47;;
22794;SDS011;11564;50.920;11.612;2023-04-15T07:12:02;20.53;;;15.70;;
22794;SDS011;11564;50.920;11.612;2023-04-15T07:14:28;19.43;;;14.73;;
22794;SDS011;11564;50.920;11.612;2023-04-15T07:16:54;22.73;;;17.33;;
22794;SDS011;11564;50.920;11.612;2023-04-15T07:19:20;21.10;;;16.90;;
22794;SDS011;11564;50.920;11.612;2023-04-15T07:21:46;16.83;;;14.70;;
22794;SDS011;11564;50.920;11.612;2023-04-15T07:24:11;16.90;;;14.03;;
22794;SDS011;11564;50.920;11.612;2023-04-15T07:26:40;15.47;;;11.90;;
22794;SDS011;11564;50.920;11.612;2023-04-15T07:29:06;14.10;;;11.97;;
22794;SDS011;11564;50.920;11.612;2023-04-15T07:31:32;14.17;;;12.17;;
22794;SDS011;11564;50.920;11.612;2023-04-15T07:33:57;16.77;;;14.13;;
22794;SDS011;11564;50.920;11.612;2023-04-15T07:36:23;16.80;;;14.13;;
22794;SDS011;11564;50.920;11.612;2023-04-15T07:38:49;12.70;;;11.10;;
22794;SDS011;11564;50.920;11.612;2023-04-15T07:41:15;14.57;;;13.03;;
22794;SDS011;11564;50.920;11.612;2023-04-15T07:43:41;15.90;;;11.90;;
22794;SDS011;11564;50.920;11.612;2023-04-15T07:46:07;12.40;;;11.07;;
22794;SDS011;11564;50.920;11.612;2023-04-15T07:48:32;11.23;;;10.03;;
22794;SDS011;11564;50.920;11.612;2023-04-15T07:50:58;11.20;;;10.03;;
22794;SDS011;11564;50.920;11.612;2023-04-15T07:53:24;11.50;;;10.30;;
22794;SDS011;11564;50.920;11.612;2023-04-15T07:55:50;8.70;;;7.90;;
22794;SDS011;11564;50.920;11.612;2023-04-15T07:58:16;10.73;;;9.67;;
22794;SDS011;11564;50.920;11.612;2023-04-15T08:00:41;14.93;;;9.20;;
22794;SDS011;11564;50.920;11.612;2023-04-15T08:03:07;11.73;;;10.27;;
22794;SDS011;11564;50.920;11.612;2023-04-15T08:05:32;9.90;;;8.97;;
22794;SDS011;11564;50.920;11.612;2023-04-15T08:07:58;10.50;;;9.47;;
22794;SDS011;11564;50.920;11.612;2023-04-15T08:10:24;11.60;;;10.30;;
22794;SDS011;11564;50.920;11.612;2023-04-15T08:12:50;11.13;;;9.90;;
22794;SDS011;11564;50.920;11.612;2023-04-15T08:15:18;9.93;;;8.90;;
22794;SDS011;11564;50.920;11.612;2023-04-15T08:17:44;11.47;;;9.10;;
22794;SDS011;11564;50.920;11.612;2023-04-15T08:20:10;10.57;;;9.40;;
22794;SDS011;11564;50.920;11.612;2023-04-15T08:22:37;11.83;;;10.00;;
22794;SDS011;11564;50.920;11.612;2023-04-15T08:25:03;9.67;;;8.60;;
22794;SDS011;11564;50.920;11.612;2023-04-15T08:27:29;9.87;;;8.83;;
22794;SDS011;11564;50.920;11.612;2023-04-15T08:29:56;9.20;;;8.30;;
22794;SDS011;11564;50.920;11.612;2023-04-15T08:32:21;9.00;;;8.10;;
22794;SDS011;11564;50.920;11.612;2023-04-15T08:34:47;9.33;;;8.37;;
22794;SDS011;11564;50.920;11.612;2023-04-15T08:37:13;8.13;;;7.33;;
22794;SDS011;11564;50.920;11.612;2023-04-15T08:39:38;6.97;;;6.30;;
22794;SDS011;11564;50.920;11.612;2023-04-15T08:42:05;6.37;;;5.83;;
22794;SDS011;11564;50.920;11.612;2023-04-15T08:44:35;6.43;;;5.97;;
22794;SDS011;11564;50.920;11.612;2023-04-15T08:47:02;7.03;;;6.33;;
22794;SDS011;11564;50.920;11.612;2023-04-15T08:49:31;9.60;;;7.30;;
22794;SDS011;11564;50.920;11.612;2023-04-15T08:51:58;9.23;;;8.30;;
22794;SDS011;11564;50.920;11.612;2023-04-15T08:54:24;6.77;;;6.17;;
22794;SDS011;11564;50.920;11.612;2023-04-15T08:56:51;7.30;;;6.60;;
22794;SDS011;11564;50.920;11.612;2023-04-15T08:59:18;11.97;;;6.87;;
22794;SDS011;11564;50.920;11.612;2023-04-15T09:01:45;9.80;;;7.17;;
22794;SDS011;11564;50.920;11.612;2023-04-15T09:04:12;8.17;;;7.50;;
22794;SDS011;11564;50.920;11.612;2023-04-15T09:06:39;8.30;;;7.60;;
22794;SDS011;11564;50.920;11.612;2023-04-15T09:09:05;7.50;;;6.80;;
22794;SDS011;11564;50.920;11.612;2023-04-15T09:11:31;7.63;;;6.93;;
22794;SDS011;11564;50.920;11.612;2023-04-15T09:13:56;6.10;;;5.60;;
22794;SDS011;11564;50.920;11.612;2023-04-15T09:16:22;5.53;;;5.13;;
22794;SDS011;11564;50.920;11.612;2023-04-15T09:18:48;6.30;;;5.83;;
22794;SDS011;11564;50.920;11.612;2023-04-15T09:21:15;6.10;;;5.60;;
22794;SDS011;11564;50.920;11.612;2023-04-15T09:29:19;7.50;;;6.60;;
22794;SDS011;11564;50.920;11.612;2023-04-15T09:31:48;5.27;;;4.87;;
22794;SDS011;11564;50.920;11.612;2023-04-15T09:34:13;6.23;;;5.73;;
22794;SDS011;11564;50.920;11.612;2023-04-15T09:36:55;5.60;;;5.20;;
22794;SDS011;11564;50.920;11.612;2023-04-15T09:39:21;4.80;;;4.40;;
22794;SDS011;11564;50.920;11.612;2023-04-15T09:42:02;5.43;;;5.00;;
22794;SDS011;11564;50.920;11.612;2023-04-15T09:44:30;5.00;;;4.70;;
22794;SDS011;11564;50.920;11.612;2023-04-15T09:46:56;4.70;;;4.40;;
22794;SDS011;11564;50.920;11.612;2023-04-15T09:49:22;4.60;;;4.20;;
22794;SDS011;11564;50.920;11.612;2023-04-15T09:51:47;4.70;;;4.40;;
22794;SDS011;11564;50.920;11.612;2023-04-15T09:54:17;4.90;;;4.60;;
22794;SDS011;11564;50.920;11.612;2023-04-15T09:56:45;5.17;;;4.77;;
22794;SDS011;11564;50.920;11.612;2023-04-15T09:59:11;4.63;;;4.30;;
22794;SDS011;11564;50.920;11.612;2023-04-15T10:01:37;4.30;;;4.00;;
22794;SDS011;11564;50.920;11.612;2023-04-15T10:04:05;4.53;;;4.20;;
22794;SDS011;11564;50.920;11.612;2023-04-15T10:06:31;4.90;;;4.50;;
22794;SDS011;11564;50.920;11.612;2023-04-15T10:08:57;3.77;;;3.47;;
22794;SDS011;11564;50.920;11.612;2023-04-15T10:11:26;4.10;;;3.80;;
22794;SDS011;11564;50.920;11.612;2023-04-15T10:13:53;3.77;;;3.57;;
22794;SDS011;11564;50.920;11.612;2023-04-15T10:16:21;4.33;;;4.03;;
22794;SDS011;11564;50.920;11.612;2023-04-15T10:18:53;4.53;;;4.13;;
22794;SDS011;11564;50.920;11.612;2023-04-15T10:21:20;4.13;;;3.83;;
22794;SDS011;11564;50.920;11.612;2023-04-15T10:23:47;2.67;;;2.57;;
22794;SDS011;11564;50.920;11.612;2023-04-15T10:26:14;3.27;;;3.07;;
22794;SDS011;11564;50.920;11.612;2023-04-15T10:28:41;5.07;;;4.67;;
22794;SDS011;11564;50.920;11.612;2023-04-15T10:31:08;4.73;;;4.40;;
22794;SDS011;11564;50.920;11.612;2023-04-15T10:33:36;4.20;;;3.93;;
22794;SDS011;11564;50.920;11.612;2023-04-15T10:36:03;2.87;;;2.77;;
22794;SDS011;11564;50.920;11.612;2023-04-15T10:38:31;3.37;;;3.10;;
22794;SDS011;11564;50.920;11.612;2023-04-15T10:41:40;3.20;;;3.00;;
22794;SDS011;11564;50.920;11.612;2023-04-15T10:44:00;3.40;;;3.20;;
22794;SDS011;11564;50.920;11.612;2023-04-15T10:46:35;3.20;;;3.00;;
22794;SDS011;11564;50.920;11.612;2023-04-15T10:49:05;3.00;;;2.80;;
22794;SDS011;11564;50.920;11.612;2023-04-15T10:51:31;3.30;;;3.10;;
22794;SDS011;11564;50.920;11.612;2023-04-15T10:54:00;3.20;;;3.00;;
22794;SDS011;11564;50.920;11.612;2023-04-15T10:56:28;3.43;;;3.23;;
22794;SDS011;11564;50.920;11.612;2023-04-15T10:58:57;2.60;;;2.50;;
22794;SDS011;11564;50.920;11.612;2023-04-15T11:01:37;3.10;;;2.63;;
22794;SDS011;11564;50.920;11.612;2023-04-15T11:12:45;1.43;;;1.43;;
22794;SDS011;11564;50.920;11.612;2023-04-15T11:15:34;2.07;;;1.97;;
22794;SDS011;11564;50.920;11.612;2023-04-15T11:20:37;2.70;;;2.50;;
22794;SDS011;11564;50.920;11.612;2023-04-15T11:23:05;2.50;;;1.57;;
22794;SDS011;11564;50.920;11.612;2023-04-15T11:25:31;1.40;;;1.30;;
22794;SDS011;11564;50.920;11.612;2023-04-15T11:27:58;1.53;;;1.00;;
22794;SDS011;11564;50.920;11.612;2023-04-15T11:30:26;1.23;;;1.20;;
22794;SDS011;11564;50.920;11.612;2023-04-15T11:32:56;1.40;;;1.33;;
22794;SDS011;11564;50.920;11.612;2023-04-15T11:35:22;1.23;;;1.23;;
22794;SDS011;11564;50.920;11.612;2023-04-15T11:37:48;1.60;;;1.50;;
22794;SDS011;11564;50.920;11.612;2023-04-15T11:40:15;3.80;;;3.50;;
22794;SDS011;11564;50.920;11.612;2023-04-15T11:42:44;2.30;;;2.20;;
22794;SDS011;11564;50.920;11.612;2023-04-15T11:45:11;1.63;;;1.53;;
22794;SDS011;11564;50.920;11.612;2023-04-15T11:47:40;1.37;;;1.27;;
22794;SDS011;11564;50.920;11.612;2023-04-15T11:50:22;1.23;;;1.23;;
22794;SDS011;11564;50.920;11.612;2023-04-15T11:53:07;2.03;;;1.20;;
22794;SDS011;11564;50.920;11.612;2023-04-15T11:55:52;1.20;;;1.10;;
22794;SDS011;11564;50.920;11.612;2023-04-15T12:01:07;1.60;;;1.50;;
22794;SDS011;11564;50.920;11.612;2023-04-15T12:03:41;1.00;;;1.00;;
22794;SDS011;11564;50.920;11.612;2023-04-15T12:13:52;1.37;;;1.27;;
22794;SDS011;11564;50.920;11.612;2023-04-15T12:16:18;2.00;;;1.90;;
22794;SDS011;11564;50.920;11.612;2023-04-15T12:18:51;2.30;;;2.20;;
22794;SDS011;11564;50.920;11.612;2023-04-15T12:21:21;3.77;;;3.50;;
22794;SDS011;11564;50.920;11.612;2023-04-15T12:26:26;6.30;;;1.47;;
22794;SDS011;11564;50.920;11.612;2023-04-15T12:29:02;2.20;;;2.10;;
22794;SDS011;11564;50.920;11.612;2023-04-15T12:31:29;1.60;;;1.50;;
22794;SDS011;11564;50.920;11.612;2023-04-15T12:33:55;1.50;;;1.40;;
22794;SDS011;11564;50.920;11.612;2023-04-15T12:36:21;2.00;;;1.90;;
22794;SDS011;11564;50.920;11.612;2023-04-15T12:38:48;1.40;;;1.30;;
22794;SDS011;11564;50.920;11.612;2023-04-15T12:41:13;2.70;;;2.50;;
22794;SDS011;11564;50.920;11.612;2023-04-15T12:43:39;1.83;;;1.73;;
22794;SDS011;11564;50.920;11.612;2023-04-15T12:46:06;2.60;;;2.40;;
22794;SDS011;11564;50.920;11.612;2023-04-15T12:48:32;3.40;;;3.23;;
22794;SDS011;11564;50.920;11.612;2023-04-15T12:50:58;5.50;;;5.00;;
22794;SDS011;11564;50.920;11.612;2023-04-15T12:53:24;3.00;;;2.80;;
22794;SDS011;11564;50.920;11.612;2023-04-15T12:55:50;6.90;;;5.10;;
22794;SDS011;11564;50.920;11.612;2023-04-15T12:58:16;2.00;;;1.90;;
22794;SDS011;11564;50.920;11.612;2023-04-15T13:00:41;2.60;;;1.57;;
22794;SDS011;11564;50.920;11.612;2023-04-15T13:03:07;1.90;;;1.80;;
22794;SDS011;11564;50.920;11.612;2023-04-15T13:05:33;3.17;;;2.97;;
22794;SDS011;11564;50.920;11.612;2023-04-15T13:08:00;1.50;;;1.40;;
22794;SDS011;11564;50.920;11.612;2023-04-15T13:10:26;1.10;;;1.10;;
22794;SDS011;11564;50.920;11.612;2023-04-15T13:12:53;2.40;;;2.10;;
22794;SDS011;11564;50.920;11.612;2023-04-15T13:15:20;1.43;;;1.33;;
22794;SDS011;11564;50.920;11.612;2023-04-15T13:17:46;1.60;;;1.50;;
22794;SDS011;11564;50.920;11.612;2023-04-15T13:20:12;2.47;;;2.30;;
22794;SDS011;11564;50.920;11.612;2023-04-15T13:22:38;1.30;;;1.20;;
22794;SDS011;11564;50.920;11.612;2023-04-15T13:25:04;1.27;;;1.27;;
22794;SDS011;11564;50.920;11.612;2023-04-15T13:27:31;1.53;;;1.43;;
22794;SDS011;11564;50.920;11.612;2023-04-15T13:29:57;1.77;;;1.67;;
22794;SDS011;11564;50.920;11.612;2023-04-15T13:32:23;1.60;;;1.50;;
22794;SDS011;11564;50.920;11.612;2023-04-15T13:34:49;1.57;;;1.47;;
22794;SDS011;11564;50.920;11.612;2023-04-15T13:37:15;1.17;;;1.17;;
22794;SDS011;11564;50.920;11.612;2023-04-15T13:39:41;1.57;;;1.47;;
22794;SDS011;11564;50.920;11.612;2023-04-15T13:42:07;1.73;;;1.30;;
22794;SDS011;11564;50.920;11.612;2023-04-15T13:44:32;1.00;;;1.00;;
22794;SDS011;11564;50.920;11.612;2023-04-15T13:46:59;1.40;;;1.30;;
22794;SDS011;11564;50.920;11.612;2023-04-15T13:49:24;1.40;;;1.30;;
22794;SDS011;11564;50.920;11.612;2023-04-15T13:51:50;1.27;;;1.27;;
22794;SDS011;11564;50.920;11.612;2023-04-15T13:54:16;1.30;;;1.20;;
22794;SDS011;11564;50.920;11.612;2023-04-15T13:56:42;1.50;;;1.40;;
22794;SDS011;11564;50.920;11.612;2023-04-15T13:59:07;1.80;;;1.70;;
22794;SDS011;11564;50.920;11.612;2023-04-15T14:01:33;1.30;;;1.20;;
22794;SDS011;11564;50.920;11.612;2023-04-15T14:03:59;1.20;;;1.10;;
22794;SDS011;11564;50.920;11.612;2023-04-15T14:06:25;1.60;;;1.50;;
22794;SDS011;11564;50.920;11.612;2023-04-15T14:08:52;1.67;;;1.57;;
22794;SDS011;11564;50.920;11.612;2023-04-15T14:11:18;1.60;;;1.43;;
22794;SDS011;11564;50.920;11.612;2023-04-15T14:13:44;1.17;;;1.07;;
22794;SDS011;11564;50.920;11.612;2023-04-15T14:16:09;1.33;;;1.27;;
22794;SDS011;11564;50.920;11.612;2023-04-15T14:18:35;1.70;;;1.60;;
22794;SDS011;11564;50.920;11.612;2023-04-15T14:21:01;1.43;;;1.33;;
22794;SDS011;11564;50.920;11.612;2023-04-15T14:23:27;1.70;;;1.60;;
22794;SDS011;11564;50.920;11.612;2023-04-15T14:25:53;1.90;;;1.30;;
22794;SDS011;11564;50.920;11.612;2023-04-15T14:28:18;1.40;;;1.30;;
22794;SDS011;11564;50.920;11.612;2023-04-15T14:30:44;1.90;;;1.80;;
22794;SDS011;11564;50.920;11.612;2023-04-15T14:33:10;1.73;;;1.63;;
22794;SDS011;11564;50.920;11.612;2023-04-15T14:35:36;1.80;;;1.70;;
22794;SDS011;11564;50.920;11.612;2023-04-15T14:38:01;1.70;;;1.60;;
22794;SDS011;11564;50.920;11.612;2023-04-15T14:40:27;2.10;;;2.00;;
22794;SDS011;11564;50.920;11.612;2023-04-15T14:42:53;1.93;;;1.83;;
22794;SDS011;11564;50.920;11.612;2023-04-15T14:45:19;2.13;;;2.03;;
22794;SDS011;11564;50.920;11.612;2023-04-15T14:47:45;2.10;;;1.90;;
22794;SDS011;11564;50.920;11.612;2023-04-15T14:50:11;5.57;;;5.07;;
22794;SDS011;11564;50.920;11.612;2023-04-15T14:52:36;3.57;;;3.37;;
22794;SDS011;11564;50.920;11.612;2023-04-15T14:55:06;2.83;;;2.63;;